Terminal Aerodrome Forecast
Issued by NWS

Home | Current Version | Previous Version | Text Only | Print | Product List | Glossary On
Versions: 1 2 3 4 5 6 7 8 9 10 11 12 13 14 15 16
000
FTUS45 KRIW 281426 AAA
TAFRKS
TAF AMD
KRKS 281426Z 2814/2912 07014G22KT P6SM SKC
     FM281600 09007KT P6SM SCT130
     FM281800 27011KT P6SM SCT110
     FM282000 29015G25KT P6SM FEW130
     FM290200 34008KT P6SM SKC
     FM290400 05010KT P6SM SKC=

USA.gov is the U.S. government's official web portal to all federal, state and local government web resources and services.